sensor_id;sensor_type;location;lat;lon;timestamp;P1;durP1;ratioP1;P2;durP2;ratioP2
26540;SDS011;14206;50.202;10.948;2023-02-28T00:01:22;4.45;;;3.70;;
26540;SDS011;14206;50.202;10.948;2023-02-28T00:03:49;3.70;;;3.22;;
26540;SDS011;14206;50.202;10.948;2023-02-28T00:06:15;3.63;;;2.80;;
26540;SDS011;14206;50.202;10.948;2023-02-28T00:08:42;3.50;;;2.80;;
26540;SDS011;14206;50.202;10.948;2023-02-28T00:11:10;4.10;;;2.42;;
26540;SDS011;14206;50.202;10.948;2023-02-28T00:13:40;3.47;;;2.75;;
26540;SDS011;14206;50.202;10.948;2023-02-28T00:16:10;3.42;;;2.70;;
26540;SDS011;14206;50.202;10.948;2023-02-28T00:18:39;2.95;;;2.58;;
26540;SDS011;14206;50.202;10.948;2023-02-28T00:21:07;3.00;;;2.55;;
26540;SDS011;14206;50.202;10.948;2023-02-28T00:23:34;3.90;;;2.58;;
26540;SDS011;14206;50.202;10.948;2023-02-28T00:26:01;3.10;;;2.67;;
26540;SDS011;14206;50.202;10.948;2023-02-28T00:28:28;3.15;;;2.60;;
26540;SDS011;14206;50.202;10.948;2023-02-28T00:30:57;3.97;;;3.13;;
26540;SDS011;14206;50.202;10.948;2023-02-28T00:33:26;4.43;;;3.05;;
26540;SDS011;14206;50.202;10.948;2023-02-28T00:36:15;3.90;;;2.90;;
26540;SDS011;14206;50.202;10.948;2023-02-28T00:38:41;4.30;;;3.42;;
26540;SDS011;14206;50.202;10.948;2023-02-28T00:41:08;5.65;;;3.40;;
26540;SDS011;14206;50.202;10.948;2023-02-28T00:43:36;4.13;;;3.03;;
26540;SDS011;14206;50.202;10.948;2023-02-28T00:46:04;4.18;;;2.97;;
26540;SDS011;14206;50.202;10.948;2023-02-28T00:48:33;3.75;;;2.75;;
26540;SDS011;14206;50.202;10.948;2023-02-28T00:51:00;3.60;;;2.67;;
26540;SDS011;14206;50.202;10.948;2023-02-28T00:53:28;3.42;;;2.60;;
26540;SDS011;14206;50.202;10.948;2023-02-28T00:55:56;3.80;;;2.85;;
26540;SDS011;14206;50.202;10.948;2023-02-28T00:58:24;4.50;;;3.30;;
26540;SDS011;14206;50.202;10.948;2023-02-28T01:00:51;4.30;;;3.13;;
26540;SDS011;14206;50.202;10.948;2023-02-28T01:03:20;4.40;;;2.85;;
26540;SDS011;14206;50.202;10.948;2023-02-28T01:05:47;3.72;;;3.05;;
26540;SDS011;14206;50.202;10.948;2023-02-28T01:08:15;3.78;;;2.65;;
26540;SDS011;14206;50.202;10.948;2023-02-28T01:10:42;4.10;;;3.13;;
26540;SDS011;14206;50.202;10.948;2023-02-28T01:13:09;4.38;;;3.13;;
26540;SDS011;14206;50.202;10.948;2023-02-28T01:15:38;4.03;;;2.70;;
26540;SDS011;14206;50.202;10.948;2023-02-28T01:18:07;2.92;;;2.50;;
26540;SDS011;14206;50.202;10.948;2023-02-28T01:20:36;3.65;;;2.53;;
26540;SDS011;14206;50.202;10.948;2023-02-28T01:23:04;3.78;;;2.90;;
26540;SDS011;14206;50.202;10.948;2023-02-28T01:25:36;3.97;;;3.00;;
26540;SDS011;14206;50.202;10.948;2023-02-28T01:28:03;3.63;;;2.63;;
26540;SDS011;14206;50.202;10.948;2023-02-28T01:30:33;3.55;;;2.65;;
26540;SDS011;14206;50.202;10.948;2023-02-28T01:33:00;2.95;;;2.40;;
26540;SDS011;14206;50.202;10.948;2023-02-28T01:35:26;3.83;;;2.50;;
26540;SDS011;14206;50.202;10.948;2023-02-28T01:37:53;4.82;;;2.92;;
26540;SDS011;14206;50.202;10.948;2023-02-28T01:40:20;3.47;;;2.50;;
26540;SDS011;14206;50.202;10.948;2023-02-28T01:42:48;3.28;;;2.38;;
26540;SDS011;14206;50.202;10.948;2023-02-28T01:45:30;4.05;;;2.50;;
26540;SDS011;14206;50.202;10.948;2023-02-28T01:48:02;3.45;;;2.42;;
26540;SDS011;14206;50.202;10.948;2023-02-28T01:50:34;4.05;;;2.40;;
26540;SDS011;14206;50.202;10.948;2023-02-28T01:53:05;3.40;;;2.58;;
26540;SDS011;14206;50.202;10.948;2023-02-28T01:55:36;2.95;;;2.35;;
26540;SDS011;14206;50.202;10.948;2023-02-28T01:58:04;3.33;;;2.70;;
26540;SDS011;14206;50.202;10.948;2023-02-28T02:00:33;3.33;;;2.30;;
26540;SDS011;14206;50.202;10.948;2023-02-28T02:03:06;3.38;;;2.20;;
26540;SDS011;14206;50.202;10.948;2023-02-28T02:05:37;3.28;;;2.50;;
26540;SDS011;14206;50.202;10.948;2023-02-28T02:08:06;3.63;;;2.20;;
26540;SDS011;14206;50.202;10.948;2023-02-28T02:10:39;3.80;;;2.15;;
26540;SDS011;14206;50.202;10.948;2023-02-28T02:26:55;3.83;;;2.83;;
26540;SDS011;14206;50.202;10.948;2023-02-28T02:29:47;4.05;;;3.28;;
26540;SDS011;14206;50.202;10.948;2023-02-28T02:43:34;2.87;;;2.20;;
26540;SDS011;14206;50.202;10.948;2023-02-28T02:46:05;3.08;;;2.47;;
26540;SDS011;14206;50.202;10.948;2023-02-28T02:48:36;4.85;;;2.42;;
26540;SDS011;14206;50.202;10.948;2023-02-28T02:51:10;2.83;;;2.17;;
26540;SDS011;14206;50.202;10.948;2023-02-28T02:53:44;2.80;;;2.17;;
26540;SDS011;14206;50.202;10.948;2023-02-28T02:56:20;2.72;;;1.98;;
26540;SDS011;14206;50.202;10.948;2023-02-28T02:58:53;2.75;;;2.05;;
26540;SDS011;14206;50.202;10.948;2023-02-28T03:01:25;2.42;;;1.88;;
26540;SDS011;14206;50.202;10.948;2023-02-28T03:03:59;2.17;;;1.63;;
26540;SDS011;14206;50.202;10.948;2023-02-28T03:06:29;2.65;;;1.70;;
26540;SDS011;14206;50.202;10.948;2023-02-28T03:08:56;2.33;;;1.70;;
26540;SDS011;14206;50.202;10.948;2023-02-28T03:11:23;1.27;;;1.17;;
26540;SDS011;14206;50.202;10.948;2023-02-28T03:19:34;1.50;;;1.08;;
26540;SDS011;14206;50.202;10.948;2023-02-28T03:24:45;1.88;;;1.50;;
26540;SDS011;14206;50.202;10.948;2023-02-28T03:27:26;1.80;;;1.30;;
26540;SDS011;14206;50.202;10.948;2023-02-28T03:30:00;1.88;;;1.42;;
26540;SDS011;14206;50.202;10.948;2023-02-28T03:32:33;1.45;;;1.30;;
26540;SDS011;14206;50.202;10.948;2023-02-28T03:35:07;1.77;;;1.40;;
26540;SDS011;14206;50.202;10.948;2023-02-28T03:37:40;1.70;;;1.40;;
26540;SDS011;14206;50.202;10.948;2023-02-28T03:40:13;1.35;;;1.10;;
26540;SDS011;14206;50.202;10.948;2023-02-28T03:42:44;1.13;;;1.02;;
26540;SDS011;14206;50.202;10.948;2023-02-28T03:45:16;1.45;;;1.00;;
26540;SDS011;14206;50.202;10.948;2023-02-28T03:48:13;1.45;;;1.13;;
26540;SDS011;14206;50.202;10.948;2023-02-28T03:50:45;1.52;;;1.23;;
26540;SDS011;14206;50.202;10.948;2023-02-28T03:53:20;1.60;;;1.17;;
26540;SDS011;14206;50.202;10.948;2023-02-28T03:56:20;1.10;;;1.00;;
26540;SDS011;14206;50.202;10.948;2023-02-28T03:58:54;1.10;;;0.93;;
26540;SDS011;14206;50.202;10.948;2023-02-28T04:01:36;1.30;;;1.00;;
26540;SDS011;14206;50.202;10.948;2023-02-28T04:04:11;1.35;;;0.88;;
26540;SDS011;14206;50.202;10.948;2023-02-28T04:06:40;1.10;;;1.00;;
26540;SDS011;14206;50.202;10.948;2023-02-28T04:09:08;1.20;;;1.08;;
26540;SDS011;14206;50.202;10.948;2023-02-28T04:11:51;1.38;;;1.00;;
26540;SDS011;14206;50.202;10.948;2023-02-28T04:14:18;1.27;;;1.13;;
26540;SDS011;14206;50.202;10.948;2023-02-28T04:16:45;1.00;;;0.90;;
26540;SDS011;14206;50.202;10.948;2023-02-28T04:19:13;1.00;;;0.90;;
26540;SDS011;14206;50.202;10.948;2023-02-28T04:21:42;0.98;;;0.82;;
26540;SDS011;14206;50.202;10.948;2023-02-28T04:24:16;1.52;;;1.23;;
26540;SDS011;14206;50.202;10.948;2023-02-28T04:26:49;1.20;;;1.00;;
26540;SDS011;14206;50.202;10.948;2023-02-28T04:29:19;0.90;;;0.90;;
26540;SDS011;14206;50.202;10.948;2023-02-28T04:31:47;1.50;;;1.30;;
26540;SDS011;14206;50.202;10.948;2023-02-28T04:34:15;1.13;;;0.90;;
26540;SDS011;14206;50.202;10.948;2023-02-28T04:36:42;1.15;;;0.98;;
26540;SDS011;14206;50.202;10.948;2023-02-28T04:39:09;1.33;;;1.08;;
26540;SDS011;14206;50.202;10.948;2023-02-28T04:41:36;1.02;;;0.88;;
26540;SDS011;14206;50.202;10.948;2023-02-28T04:44:03;1.40;;;1.13;;
26540;SDS011;14206;50.202;10.948;2023-02-28T04:46:33;1.40;;;1.30;;
26540;SDS011;14206;50.202;10.948;2023-02-28T04:48:59;1.15;;;0.98;;
26540;SDS011;14206;50.202;10.948;2023-02-28T04:51:26;1.73;;;1.23;;
26540;SDS011;14206;50.202;10.948;2023-02-28T04:53:54;1.40;;;1.30;;
26540;SDS011;14206;50.202;10.948;2023-02-28T04:56:20;1.58;;;1.02;;
26540;SDS011;14206;50.202;10.948;2023-02-28T04:58:47;1.20;;;1.00;;
26540;SDS011;14206;50.202;10.948;2023-02-28T05:01:25;1.15;;;0.95;;
26540;SDS011;14206;50.202;10.948;2023-02-28T05:03:55;0.80;;;0.80;;
26540;SDS011;14206;50.202;10.948;2023-02-28T05:06:25;1.50;;;1.20;;
26540;SDS011;14206;50.202;10.948;2023-02-28T05:08:53;1.25;;;1.13;;
26540;SDS011;14206;50.202;10.948;2023-02-28T05:13:50;1.15;;;1.05;;
26540;SDS011;14206;50.202;10.948;2023-02-28T05:16:18;1.52;;;1.13;;
26540;SDS011;14206;50.202;10.948;2023-02-28T05:18:45;1.25;;;1.05;;
26540;SDS011;14206;50.202;10.948;2023-02-28T05:21:22;1.52;;;1.13;;
26540;SDS011;14206;50.202;10.948;2023-02-28T05:23:53;1.90;;;1.13;;
26540;SDS011;14206;50.202;10.948;2023-02-28T05:26:21;1.77;;;1.48;;
26540;SDS011;14206;50.202;10.948;2023-02-28T05:28:49;1.63;;;1.27;;
26540;SDS011;14206;50.202;10.948;2023-02-28T05:31:16;1.70;;;1.40;;
26540;SDS011;14206;50.202;10.948;2023-02-28T05:33:43;2.13;;;1.73;;
26540;SDS011;14206;50.202;10.948;2023-02-28T05:36:09;2.20;;;1.63;;
26540;SDS011;14206;50.202;10.948;2023-02-28T05:38:36;2.35;;;1.67;;
26540;SDS011;14206;50.202;10.948;2023-02-28T05:41:05;3.17;;;2.30;;
26540;SDS011;14206;50.202;10.948;2023-02-28T05:43:35;2.70;;;2.05;;
26540;SDS011;14206;50.202;10.948;2023-02-28T05:46:07;4.57;;;3.00;;
26540;SDS011;14206;50.202;10.948;2023-02-28T05:48:36;3.92;;;2.80;;
26540;SDS011;14206;50.202;10.948;2023-02-28T05:51:04;5.07;;;3.08;;
26540;SDS011;14206;50.202;10.948;2023-02-28T05:53:33;3.97;;;3.00;;
26540;SDS011;14206;50.202;10.948;2023-02-28T05:56:00;6.60;;;3.63;;
26540;SDS011;14206;50.202;10.948;2023-02-28T05:58:27;7.70;;;4.28;;
26540;SDS011;14206;50.202;10.948;2023-02-28T06:01:00;7.00;;;4.20;;
26540;SDS011;14206;50.202;10.948;2023-02-28T06:04:05;5.07;;;3.70;;
26540;SDS011;14206;50.202;10.948;2023-02-28T06:06:48;4.95;;;3.70;;
26540;SDS011;14206;50.202;10.948;2023-02-28T06:09:15;4.72;;;3.47;;
26540;SDS011;14206;50.202;10.948;2023-02-28T06:11:43;5.63;;;3.95;;
26540;SDS011;14206;50.202;10.948;2023-02-28T06:14:14;6.00;;;3.92;;
26540;SDS011;14206;50.202;10.948;2023-02-28T06:16:42;6.28;;;3.75;;
26540;SDS011;14206;50.202;10.948;2023-02-28T06:19:09;4.82;;;3.65;;
26540;SDS011;14206;50.202;10.948;2023-02-28T06:21:36;3.90;;;2.75;;
26540;SDS011;14206;50.202;10.948;2023-02-28T06:24:03;4.72;;;3.53;;
26540;SDS011;14206;50.202;10.948;2023-02-28T06:26:31;4.25;;;3.22;;
26540;SDS011;14206;50.202;10.948;2023-02-28T06:28:58;4.28;;;3.00;;
26540;SDS011;14206;50.202;10.948;2023-02-28T06:31:26;4.63;;;3.38;;
26540;SDS011;14206;50.202;10.948;2023-02-28T06:33:55;7.55;;;5.22;;
26540;SDS011;14206;50.202;10.948;2023-02-28T06:36:22;7.40;;;5.10;;
26540;SDS011;14206;50.202;10.948;2023-02-28T06:38:49;6.53;;;4.57;;
26540;SDS011;14206;50.202;10.948;2023-02-28T06:41:24;8.68;;;5.72;;
26540;SDS011;14206;50.202;10.948;2023-02-28T06:43:52;6.43;;;4.88;;
26540;SDS011;14206;50.202;10.948;2023-02-28T06:46:19;8.25;;;6.05;;
26540;SDS011;14206;50.202;10.948;2023-02-28T06:48:47;8.90;;;6.00;;
26540;SDS011;14206;50.202;10.948;2023-02-28T06:51:15;9.10;;;6.15;;
26540;SDS011;14206;50.202;10.948;2023-02-28T06:53:44;9.38;;;6.07;;
26540;SDS011;14206;50.202;10.948;2023-02-28T06:56:12;8.32;;;5.90;;
26540;SDS011;14206;50.202;10.948;2023-02-28T06:58:41;10.18;;;6.60;;
26540;SDS011;14206;50.202;10.948;2023-02-28T07:01:08;9.52;;;6.55;;
26540;SDS011;14206;50.202;10.948;2023-02-28T07:03:35;9.57;;;6.93;;
26540;SDS011;14206;50.202;10.948;2023-02-28T07:06:04;11.23;;;7.40;;
26540;SDS011;14206;50.202;10.948;2023-02-28T07:08:38;9.35;;;6.68;;
26540;SDS011;14206;50.202;10.948;2023-02-28T07:11:07;11.38;;;7.60;;
26540;SDS011;14206;50.202;10.948;2023-02-28T07:13:33;11.63;;;7.40;;
26540;SDS011;14206;50.202;10.948;2023-02-28T07:16:02;11.30;;;7.20;;
26540;SDS011;14206;50.202;10.948;2023-02-28T07:18:31;10.90;;;7.28;;
26540;SDS011;14206;50.202;10.948;2023-02-28T07:21:01;10.48;;;7.40;;
26540;SDS011;14206;50.202;10.948;2023-02-28T07:23:28;10.07;;;6.93;;
26540;SDS011;14206;50.202;10.948;2023-02-28T07:25:55;10.80;;;7.00;;
26540;SDS011;14206;50.202;10.948;2023-02-28T07:28:22;8.73;;;6.40;;
26540;SDS011;14206;50.202;10.948;2023-02-28T07:30:49;9.93;;;6.53;;
26540;SDS011;14206;50.202;10.948;2023-02-28T07:33:17;8.77;;;6.10;;
26540;SDS011;14206;50.202;10.948;2023-02-28T07:35:44;8.35;;;5.78;;
26540;SDS011;14206;50.202;10.948;2023-02-28T07:38:10;8.52;;;6.60;;
26540;SDS011;14206;50.202;10.948;2023-02-28T07:40:39;8.68;;;6.88;;
26540;SDS011;14206;50.202;10.948;2023-02-28T07:43:06;10.48;;;7.47;;
26540;SDS011;14206;50.202;10.948;2023-02-28T07:45:33;8.55;;;6.72;;
26540;SDS011;14206;50.202;10.948;2023-02-28T07:48:00;9.65;;;6.55;;
26540;SDS011;14206;50.202;10.948;2023-02-28T07:50:27;9.75;;;6.72;;
26540;SDS011;14206;50.202;10.948;2023-02-28T07:52:58;10.70;;;7.10;;
26540;SDS011;14206;50.202;10.948;2023-02-28T07:55:25;9.00;;;6.95;;
26540;SDS011;14206;50.202;10.948;2023-02-28T07:57:52;8.73;;;6.65;;
26540;SDS011;14206;50.202;10.948;2023-02-28T08:00:19;9.80;;;6.90;;
26540;SDS011;14206;50.202;10.948;2023-02-28T08:02:46;12.32;;;7.05;;
26540;SDS011;14206;50.202;10.948;2023-02-28T08:05:13;10.93;;;7.30;;
26540;SDS011;14206;50.202;10.948;2023-02-28T08:07:40;10.77;;;7.10;;
26540;SDS011;14206;50.202;10.948;2023-02-28T08:10:07;9.80;;;6.97;;
26540;SDS011;14206;50.202;10.948;2023-02-28T08:12:36;9.40;;;6.28;;
26540;SDS011;14206;50.202;10.948;2023-02-28T08:15:03;8.27;;;6.05;;
26540;SDS011;14206;50.202;10.948;2023-02-28T08:17:30;9.27;;;6.50;;
26540;SDS011;14206;50.202;10.948;2023-02-28T08:20:00;7.25;;;5.60;;
26540;SDS011;14206;50.202;10.948;2023-02-28T08:22:27;9.13;;;6.35;;
26540;SDS011;14206;50.202;10.948;2023-02-28T08:24:53;7.60;;;5.85;;
26540;SDS011;14206;50.202;10.948;2023-02-28T08:27:20;7.93;;;5.47;;
26540;SDS011;14206;50.202;10.948;2023-02-28T08:29:47;7.25;;;5.35;;
26540;SDS011;14206;50.202;10.948;2023-02-28T08:32:14;7.20;;;5.35;;
26540;SDS011;14206;50.202;10.948;2023-02-28T08:34:55;6.10;;;4.95;;
26540;SDS011;14206;50.202;10.948;2023-02-28T08:37:22;6.03;;;5.20;;
26540;SDS011;14206;50.202;10.948;2023-02-28T08:39:49;8.40;;;5.20;;
26540;SDS011;14206;50.202;10.948;2023-02-28T08:42:17;7.22;;;5.30;;
26540;SDS011;14206;50.202;10.948;2023-02-28T08:44:44;8.20;;;5.30;;
26540;SDS011;14206;50.202;10.948;2023-02-28T08:47:10;6.10;;;4.88;;
26540;SDS011;14206;50.202;10.948;2023-02-28T08:49:37;6.78;;;5.40;;
26540;SDS011;14206;50.202;10.948;2023-02-28T08:52:04;7.45;;;4.85;;
26540;SDS011;14206;50.202;10.948;2023-02-28T08:54:32;7.47;;;5.07;;
26540;SDS011;14206;50.202;10.948;2023-02-28T08:57:00;6.25;;;4.85;;
26540;SDS011;14206;50.202;10.948;2023-02-28T08:59:26;6.55;;;5.00;;
26540;SDS011;14206;50.202;10.948;2023-02-28T09:01:53;6.22;;;4.90;;
26540;SDS011;14206;50.202;10.948;2023-02-28T09:04:20;6.05;;;4.72;;
26540;SDS011;14206;50.202;10.948;2023-02-28T09:06:50;5.32;;;4.40;;
26540;SDS011;14206;50.202;10.948;2023-02-28T09:09:17;5.63;;;4.30;;
26540;SDS011;14206;50.202;10.948;2023-02-28T09:11:44;5.95;;;4.70;;
26540;SDS011;14206;50.202;10.948;2023-02-28T09:14:11;5.65;;;4.38;;
26540;SDS011;14206;50.202;10.948;2023-02-28T09:16:37;5.55;;;4.10;;
26540;SDS011;14206;50.202;10.948;2023-02-28T09:19:04;5.43;;;4.60;;
26540;SDS011;14206;50.202;10.948;2023-02-28T09:21:31;5.53;;;4.65;;
26540;SDS011;14206;50.202;10.948;2023-02-28T09:23:58;6.07;;;4.93;;
26540;SDS011;14206;50.202;10.948;2023-02-28T09:26:26;5.35;;;4.53;;
26540;SDS011;14206;50.202;10.948;2023-02-28T09:29:07;4.20;;;3.78;;
26540;SDS011;14206;50.202;10.948;2023-02-28T09:31:34;5.43;;;4.10;;
26540;SDS011;14206;50.202;10.948;2023-02-28T09:34:01;6.80;;;4.90;;
26540;SDS011;14206;50.202;10.948;2023-02-28T09:36:30;5.20;;;3.95;;
26540;SDS011;14206;50.202;10.948;2023-02-28T09:39:11;5.15;;;4.00;;
26540;SDS011;14206;50.202;10.948;2023-02-28T09:41:39;4.85;;;3.90;;
26540;SDS011;14206;50.202;10.948;2023-02-28T09:44:39;5.60;;;4.10;;
26540;SDS011;14206;50.202;10.948;2023-02-28T09:47:18;5.35;;;4.20;;
26540;SDS011;14206;50.202;10.948;2023-02-28T09:50:03;5.03;;;4.13;;
26540;SDS011;14206;50.202;10.948;2023-02-28T09:52:45;5.10;;;3.95;;
26540;SDS011;14206;50.202;10.948;2023-02-28T10:03:54;5.53;;;4.30;;
26540;SDS011;14206;50.202;10.948;2023-02-28T10:06:33;5.40;;;4.00;;
26540;SDS011;14206;50.202;10.948;2023-02-28T10:11:40;4.68;;;3.53;;
26540;SDS011;14206;50.202;10.948;2023-02-28T10:14:18;5.03;;;4.00;;
26540;SDS011;14206;50.202;10.948;2023-02-28T10:22:14;3.70;;;3.03;;
26540;SDS011;14206;50.202;10.948;2023-02-28T10:24:51;5.57;;;3.63;;
26540;SDS011;14206;50.202;10.948;2023-02-28T10:27:27;4.72;;;2.88;;
26540;SDS011;14206;50.202;10.948;2023-02-28T10:29:57;3.63;;;3.22;;
26540;SDS011;14206;50.202;10.948;2023-02-28T10:32:36;5.25;;;3.60;;
26540;SDS011;14206;50.202;10.948;2023-02-28T10:35:17;3.97;;;3.30;;
26540;SDS011;14206;50.202;10.948;2023-02-28T10:37:50;4.10;;;3.45;;
26540;SDS011;14206;50.202;10.948;2023-02-28T10:43:01;4.25;;;3.28;;
26540;SDS011;14206;50.202;10.948;2023-02-28T10:49:15;5.03;;;3.53;;
26540;SDS011;14206;50.202;10.948;2023-02-28T10:51:54;3.88;;;3.50;;
26540;SDS011;14206;50.202;10.948;2023-02-28T10:54:35;4.30;;;3.67;;
26540;SDS011;14206;50.202;10.948;2023-02-28T10:57:20;2.97;;;2.67;;
26540;SDS011;14206;50.202;10.948;2023-02-28T10:59:52;4.78;;;3.00;;
26540;SDS011;14206;50.202;10.948;2023-02-28T11:02:35;5.25;;;3.65;;
26540;SDS011;14206;50.202;10.948;2023-02-28T11:07:53;4.53;;;3.55;;
26540;SDS011;14206;50.202;10.948;2023-02-28T11:10:33;4.15;;;3.40;;
26540;SDS011;14206;50.202;10.948;2023-02-28T11:13:01;4.97;;;3.65;;
26540;SDS011;14206;50.202;10.948;2023-02-28T11:15:30;4.53;;;3.63;;
26540;SDS011;14206;50.202;10.948;2023-02-28T11:20:49;4.40;;;3.85;;
26540;SDS011;14206;50.202;10.948;2023-02-28T11:23:18;4.03;;;3.05;;
26540;SDS011;14206;50.202;10.948;2023-02-28T11:25:54;6.00;;;3.53;;
26540;SDS011;14206;50.202;10.948;2023-02-28T11:31:03;4.90;;;3.67;;
26540;SDS011;14206;50.202;10.948;2023-02-28T11:33:40;4.82;;;3.95;;
26540;SDS011;14206;50.202;10.948;2023-02-28T11:36:13;4.32;;;3.45;;
26540;SDS011;14206;50.202;10.948;2023-02-28T11:39:07;5.00;;;3.50;;
26540;SDS011;14206;50.202;10.948;2023-02-28T11:41:40;4.22;;;3.20;;
26540;SDS011;14206;50.202;10.948;2023-02-28T11:49:49;4.28;;;3.35;;
26540;SDS011;14206;50.202;10.948;2023-02-28T12:09:02;4.70;;;3.50;;
26540;SDS011;14206;50.202;10.948;2023-02-28T12:14:37;5.97;;;4.32;;
26540;SDS011;14206;50.202;10.948;2023-02-28T12:28:01;5.47;;;3.75;;
26540;SDS011;14206;50.202;10.948;2023-02-28T12:30:29;4.65;;;3.90;;
26540;SDS011;14206;50.202;10.948;2023-02-28T12:33:03;4.57;;;3.33;;
26540;SDS011;14206;50.202;10.948;2023-02-28T12:35:38;5.07;;;3.85;;
26540;SDS011;14206;50.202;10.948;2023-02-28T12:38:22;5.80;;;4.10;;
26540;SDS011;14206;50.202;10.948;2023-02-28T12:40:56;6.47;;;4.22;;
26540;SDS011;14206;50.202;10.948;2023-02-28T12:43:38;6.10;;;4.30;;
26540;SDS011;14206;50.202;10.948;2023-02-28T12:46:12;6.22;;;4.55;;
26540;SDS011;14206;50.202;10.948;2023-02-28T12:48:48;5.93;;;4.35;;
26540;SDS011;14206;50.202;10.948;2023-02-28T12:51:22;5.07;;;4.05;;
26540;SDS011;14206;50.202;10.948;2023-02-28T12:59:12;5.53;;;4.10;;
26540;SDS011;14206;50.202;10.948;2023-02-28T13:07:21;5.63;;;4.10;;
26540;SDS011;14206;50.202;10.948;2023-02-28T13:10:20;5.85;;;4.20;;
26540;SDS011;14206;50.202;10.948;2023-02-28T13:12:51;7.47;;;5.30;;
26540;SDS011;14206;50.202;10.948;2023-02-28T13:15:22;5.60;;;4.40;;
26540;SDS011;14206;50.202;10.948;2023-02-28T13:17:52;5.90;;;4.70;;
26540;SDS011;14206;50.202;10.948;2023-02-28T13:20:25;6.03;;;4.47;;
26540;SDS011;14206;50.202;10.948;2023-02-28T13:22:56;4.75;;;4.10;;
26540;SDS011;14206;50.202;10.948;2023-02-28T13:28:01;5.00;;;4.10;;
26540;SDS011;14206;50.202;10.948;2023-02-28T13:36:07;6.15;;;4.50;;
26540;SDS011;14206;50.202;10.948;2023-02-28T13:38:38;6.25;;;4.28;;
26540;SDS011;14206;50.202;10.948;2023-02-28T13:54:22;5.93;;;4.50;;
26540;SDS011;14206;50.202;10.948;2023-02-28T14:03:14;4.50;;;3.70;;
26540;SDS011;14206;50.202;10.948;2023-02-28T14:05:38;5.85;;;3.95;;
26540;SDS011;14206;50.202;10.948;2023-02-28T14:08:12;4.90;;;3.90;;
26540;SDS011;14206;50.202;10.948;2023-02-28T14:10:44;4.45;;;4.05;;
26540;SDS011;14206;50.202;10.948;2023-02-28T14:16:01;6.57;;;4.88;;
26540;SDS011;14206;50.202;10.948;2023-02-28T14:18:30;5.38;;;3.95;;
26540;SDS011;14206;50.202;10.948;2023-02-28T14:35:35;6.18;;;4.50;;
26540;SDS011;14206;50.202;10.948;2023-02-28T14:37:38;6.68;;;4.47;;
26540;SDS011;14206;50.202;10.948;2023-02-28T14:40:17;5.88;;;4.60;;
26540;SDS011;14206;50.202;10.948;2023-02-28T14:43:01;7.28;;;4.75;;
26540;SDS011;14206;50.202;10.948;2023-02-28T14:45:30;5.53;;;4.22;;
26540;SDS011;14206;50.202;10.948;2023-02-28T14:47:59;5.35;;;4.30;;
26540;SDS011;14206;50.202;10.948;2023-02-28T14:50:32;6.85;;;4.88;;
26540;SDS011;14206;50.202;10.948;2023-02-28T14:53:01;7.22;;;5.00;;
26540;SDS011;14206;50.202;10.948;2023-02-28T14:55:30;6.55;;;5.38;;
26540;SDS011;14206;50.202;10.948;2023-02-28T14:58:00;6.00;;;4.88;;
26540;SDS011;14206;50.202;10.948;2023-02-28T15:00:33;6.07;;;4.30;;
26540;SDS011;14206;50.202;10.948;2023-02-28T15:03:20;6.88;;;4.78;;
26540;SDS011;14206;50.202;10.948;2023-02-28T15:05:56;6.45;;;4.35;;
26540;SDS011;14206;50.202;10.948;2023-02-28T15:08:29;5.78;;;4.68;;
26540;SDS011;14206;50.202;10.948;2023-02-28T15:13:38;8.18;;;4.78;;
26540;SDS011;14206;50.202;10.948;2023-02-28T15:16:19;5.93;;;4.22;;
26540;SDS011;14206;50.202;10.948;2023-02-28T15:21:29;6.65;;;5.18;;
26540;SDS011;14206;50.202;10.948;2023-02-28T15:23:59;7.22;;;4.95;;
26540;SDS011;14206;50.202;10.948;2023-02-28T15:26:52;6.50;;;5.05;;
26540;SDS011;14206;50.202;10.948;2023-02-28T15:29:25;5.90;;;4.70;;
26540;SDS011;14206;50.202;10.948;2023-02-28T15:32:02;8.55;;;5.57;;
26540;SDS011;14206;50.202;10.948;2023-02-28T15:34:37;6.55;;;4.97;;
26540;SDS011;14206;50.202;10.948;2023-02-28T15:40:05;7.32;;;5.43;;
26540;SDS011;14206;50.202;10.948;2023-02-28T15:42:32;8.00;;;5.25;;
26540;SDS011;14206;50.202;10.948;2023-02-28T15:44:59;6.40;;;4.70;;
26540;SDS011;14206;50.202;10.948;2023-02-28T15:47:26;6.18;;;4.90;;
26540;SDS011;14206;50.202;10.948;2023-02-28T15:50:04;6.45;;;4.90;;
26540;SDS011;14206;50.202;10.948;2023-02-28T15:57:48;6.60;;;5.15;;
26540;SDS011;14206;50.202;10.948;2023-02-28T16:00:23;6.50;;;5.18;;
26540;SDS011;14206;50.202;10.948;2023-02-28T16:02:52;7.85;;;5.32;;
26540;SDS011;14206;50.202;10.948;2023-02-28T16:05:26;7.57;;;5.68;;
26540;SDS011;14206;50.202;10.948;2023-02-28T16:07:57;7.30;;;5.35;;
26540;SDS011;14206;50.202;10.948;2023-02-28T16:10:26;7.15;;;5.70;;
26540;SDS011;14206;50.202;10.948;2023-02-28T16:12:55;7.65;;;6.38;;
26540;SDS011;14206;50.202;10.948;2023-02-28T16:15:24;7.88;;;6.07;;
26540;SDS011;14206;50.202;10.948;2023-02-28T16:17:57;8.73;;;6.13;;
26540;SDS011;14206;50.202;10.948;2023-02-28T16:20:25;7.97;;;5.60;;
26540;SDS011;14206;50.202;10.948;2023-02-28T16:22:55;8.63;;;6.07;;
26540;SDS011;14206;50.202;10.948;2023-02-28T16:25:23;6.45;;;4.93;;
26540;SDS011;14206;50.202;10.948;2023-02-28T16:27:59;7.03;;;5.45;;
26540;SDS011;14206;50.202;10.948;2023-02-28T16:30:27;6.82;;;5.30;;
26540;SDS011;14206;50.202;10.948;2023-02-28T16:32:57;6.50;;;4.90;;
26540;SDS011;14206;50.202;10.948;2023-02-28T16:35:24;7.35;;;5.25;;
26540;SDS011;14206;50.202;10.948;2023-02-28T16:37:51;7.43;;;5.40;;
26540;SDS011;14206;50.202;10.948;2023-02-28T16:40:22;8.38;;;5.10;;
26540;SDS011;14206;50.202;10.948;2023-02-28T16:42:52;7.88;;;5.63;;
26540;SDS011;14206;50.202;10.948;2023-02-28T16:45:25;7.45;;;5.28;;
26540;SDS011;14206;50.202;10.948;2023-02-28T16:47:53;7.60;;;5.70;;
26540;SDS011;14206;50.202;10.948;2023-02-28T16:50:22;6.72;;;5.10;;
26540;SDS011;14206;50.202;10.948;2023-02-28T16:52:51;7.25;;;6.03;;
26540;SDS011;14206;50.202;10.948;2023-02-28T16:55:20;10.55;;;6.63;;
26540;SDS011;14206;50.202;10.948;2023-02-28T16:57:50;9.57;;;6.70;;
26540;SDS011;14206;50.202;10.948;2023-02-28T17:00:20;7.90;;;6.18;;
26540;SDS011;14206;50.202;10.948;2023-02-28T17:02:47;8.50;;;6.30;;
26540;SDS011;14206;50.202;10.948;2023-02-28T17:05:14;10.07;;;6.43;;
26540;SDS011;14206;50.202;10.948;2023-02-28T17:07:41;8.85;;;6.22;;
26540;SDS011;14206;50.202;10.948;2023-02-28T17:10:21;8.32;;;6.20;;
26540;SDS011;14206;50.202;10.948;2023-02-28T17:12:50;8.20;;;6.68;;
26540;SDS011;14206;50.202;10.948;2023-02-28T17:15:18;8.25;;;6.18;;
26540;SDS011;14206;50.202;10.948;2023-02-28T17:17:48;10.77;;;7.05;;
26540;SDS011;14206;50.202;10.948;2023-02-28T17:20:17;8.00;;;5.90;;
26540;SDS011;14206;50.202;10.948;2023-02-28T17:22:50;8.38;;;6.60;;
26540;SDS011;14206;50.202;10.948;2023-02-28T17:25:17;10.45;;;7.20;;
26540;SDS011;14206;50.202;10.948;2023-02-28T17:27:44;9.52;;;6.72;;
26540;SDS011;14206;50.202;10.948;2023-02-28T17:32:45;9.40;;;7.03;;
26540;SDS011;14206;50.202;10.948;2023-02-28T17:35:12;8.85;;;6.60;;
26540;SDS011;14206;50.202;10.948;2023-02-28T17:37:39;9.02;;;6.57;;
26540;SDS011;14206;50.202;10.948;2023-02-28T17:40:28;11.32;;;7.88;;
26540;SDS011;14206;50.202;10.948;2023-02-28T17:42:54;10.45;;;8.07;;
26540;SDS011;14206;50.202;10.948;2023-02-28T17:45:22;10.43;;;7.82;;
26540;SDS011;14206;50.202;10.948;2023-02-28T17:47:50;12.50;;;7.90;;
26540;SDS011;14206;50.202;10.948;2023-02-28T17:50:17;10.25;;;6.88;;